Time;durP1;ratioP1;P1;durP2;ratioP2;P2;SDS_P1;SDS_P2;PMS_P1;PMS_P2;Temp;Humidity;BMP_temperature;BMP_pressure;BME280_temperature;BME280_humidity;BME280_pressure;Samples;Min_cycle;Max_cycle;Signal;HPM_P1;HPM_P2
2022/06/18 00:01:34;;;;;;;4.67;4.27;;;19.20;91.20;;;;;;5144435;27;20505;-79
2022/06/18 00:04:04;;;;;;;3.97;3.67;;;19.10;91.20;;;;;;5144877;27;20453;-79
2022/06/18 00:06:36;;;;;;;4.63;4.23;;;19.10;91.20;;;;;;5163781;27;20453;-79
2022/06/18 00:09:05;;;;;;;5.40;3.57;;;19.10;91.30;;;;;;5144498;27;20432;-79
2022/06/18 00:14:20;;;;;;;3.83;3.53;;;19.00;91.30;;;;;;5144169;27;20540;-79
2022/06/18 00:16:48;;;;;;;4.33;4.03;;;19.00;91.40;;;;;;5144276;27;20548;-79
2022/06/18 00:19:17;;;;;;;3.93;3.57;;;19.00;91.40;;;;;;5143932;27;20504;-77
2022/06/18 00:21:45;;;;;;;4.00;3.70;;;19.00;91.40;;;;;;5140905;27;20473;-79
2022/06/18 00:24:17;;;;;;;4.37;3.97;;;18.90;91.40;;;;;;5158976;27;20450;-77
2022/06/18 00:26:45;;;;;;;4.90;3.73;;;18.90;91.50;;;;;;5144078;27;20470;-79
2022/06/18 00:29:17;;;;;;;4.13;3.73;;;18.90;91.50;;;;;;5151487;27;20416;-79
2022/06/18 00:31:47;;;;;;;5.93;4.40;;;18.90;91.60;;;;;;5149432;27;20438;-79
2022/06/18 00:34:16;;;;;;;4.23;3.67;;;18.80;91.50;;;;;;5146414;27;20485;-79
2022/06/18 00:36:45;;;;;;;3.87;3.57;;;18.80;91.60;;;;;;5142626;27;20465;-78
2022/06/18 00:39:18;;;;;;;5.00;4.13;;;18.80;91.60;;;;;;5141392;27;20461;-79
2022/06/18 00:41:51;;;;;;;4.40;4.00;;;18.80;91.70;;;;;;5159184;27;20493;-79
2022/06/18 00:44:28;;;;;;;3.80;3.50;;;18.80;91.70;;;;;;5140783;27;20448;-79
2022/06/18 00:47:07;;;;;;;4.57;3.70;;;18.70;91.70;;;;;;5140961;27;20549;-79
2022/06/18 00:49:41;;;;;;;3.87;3.53;;;18.70;91.70;;;;;;5159552;27;20461;-80
2022/06/18 00:52:15;;;;;;;4.07;3.50;;;18.70;91.80;;;;;;5140630;27;20461;-78
2022/06/18 00:54:47;;;;;;;4.10;3.80;;;18.70;91.80;;;;;;5139859;27;20482;-78
2022/06/18 00:57:22;;;;;;;4.07;3.67;;;18.60;91.80;;;;;;5139931;27;20828;-77
2022/06/18 00:59:56;;;;;;;3.60;3.30;;;18.60;91.80;;;;;;5139575;27;20457;-79
2022/06/18 01:02:31;;;;;;;4.47;4.07;;;18.60;91.80;;;;;;5140007;27;20978;-79
2022/06/18 01:04:59;;;;;;;3.70;3.40;;;18.60;92.10;;;;;;5140071;27;20490;-78
2022/06/18 01:07:30;;;;;;;4.27;3.30;;;18.60;91.80;;;;;;5139452;27;21093;-77
2022/06/18 01:10:01;;;;;;;3.60;3.30;;;18.60;91.90;;;;;;5139785;27;20957;-79
2022/06/18 01:12:31;;;;;;;4.03;3.67;;;18.60;91.90;;;;;;5140474;27;20440;-79
2022/06/18 01:15:04;;;;;;;3.67;3.40;;;18.60;91.90;;;;;;5140393;27;20453;-80
2022/06/18 01:17:39;;;;;;;4.07;3.67;;;18.60;91.90;;;;;;5141225;27;20509;-79
2022/06/18 01:20:11;;;;;;;3.73;3.43;;;18.60;91.90;;;;;;5140851;27;20461;-79
2022/06/18 01:22:55;;;;;;;3.80;3.50;;;18.60;92.00;;;;;;5140276;27;20442;-79
2022/06/18 01:25:27;;;;;;;3.93;3.63;;;18.60;92.00;;;;;;5139710;27;20445;-79
2022/06/18 01:27:56;;;;;;;4.00;3.70;;;18.50;91.90;;;;;;5139705;27;20461;-79
2022/06/18 01:30:33;;;;;;;3.83;3.53;;;18.50;92.00;;;;;;5140024;27;20429;-78
2022/06/18 01:33:06;;;;;;;4.13;3.73;;;18.50;92.00;;;;;;5139462;27;20438;-78
2022/06/18 01:35:37;;;;;;;3.60;3.17;;;18.50;92.00;;;;;;5158426;27;20467;-78
2022/06/18 01:38:14;;;;;;;3.83;3.53;;;18.50;92.00;;;;;;5139850;27;20404;-79
2022/06/18 01:40:49;;;;;;;3.90;3.60;;;18.50;92.00;;;;;;5140321;27;20465;-80
2022/06/18 01:43:19;;;;;;;4.30;3.90;;;18.50;92.00;;;;;;5139616;27;20476;-78
2022/06/18 01:45:55;;;;;;;3.80;3.40;;;18.50;92.00;;;;;;5140099;27;20438;-78
2022/06/18 01:48:27;;;;;;;4.53;3.67;;;18.50;92.00;;;;;;5139045;27;21006;-78
2022/06/18 01:51:01;;;;;;;4.40;3.90;;;18.50;92.00;;;;;;5139093;27;20433;-80
2022/06/18 01:53:34;;;;;;;4.40;4.00;;;18.40;92.00;;;;;;5139434;27;20434;-78
2022/06/18 01:56:08;;;;;;;3.43;3.07;;;18.40;92.00;;;;;;5138794;27;20483;-78
2022/06/18 01:58:45;;;;;;;4.97;4.00;;;18.40;92.10;;;;;;5138705;27;20497;-78
2022/06/18 02:01:26;;;;;;;3.73;3.43;;;18.40;92.10;;;;;;5139163;27;20540;-77
2022/06/18 02:03:56;;;;;;;3.63;3.33;;;18.40;92.10;;;;;;5139059;27;20465;-78
2022/06/18 02:06:25;;;;;;;4.10;3.73;;;18.30;92.30;;;;;;5139112;27;20466;-80
2022/06/18 02:08:54;;;;;;;3.70;3.40;;;18.30;92.10;;;;;;5138889;27;20454;-78
2022/06/18 02:11:24;;;;;;;4.30;3.90;;;18.30;92.10;;;;;;5138802;27;20412;-79
2022/06/18 02:13:59;;;;;;;4.40;4.00;;;18.30;92.10;;;;;;5138334;27;20441;-78
2022/06/18 02:16:35;;;;;;;3.87;3.37;;;18.30;92.20;;;;;;5138695;27;20461;-79
2022/06/18 02:19:05;;;;;;;4.13;3.70;;;18.30;92.20;;;;;;5138293;27;20404;-78
2022/06/18 02:21:40;;;;;;;4.67;3.90;;;18.30;92.20;;;;;;5157831;27;20525;-78
2022/06/18 02:24:10;;;;;;;4.30;3.90;;;18.30;92.30;;;;;;5138651;27;20805;-78
2022/06/18 02:26:41;;;;;;;3.80;3.50;;;18.20;92.20;;;;;;5138278;27;20542;-77
2022/06/18 02:29:17;;;;;;;4.47;4.03;;;18.20;92.20;;;;;;5138051;27;20465;-78
2022/06/18 02:31:45;;;;;;;4.17;3.50;;;18.20;92.30;;;;;;5137998;27;20449;-78
2022/06/18 02:34:17;;;;;;;5.13;4.40;;;18.20;92.30;;;;;;5138301;27;20446;-77
2022/06/18 02:36:47;;;;;;;4.43;3.80;;;18.20;92.30;;;;;;5137801;27;20979;-77
2022/06/18 02:39:24;;;;;;;4.63;4.23;;;18.20;92.40;;;;;;5137380;27;20841;-77
2022/06/18 02:41:58;;;;;;;4.80;4.40;;;18.20;92.40;;;;;;5156394;27;20424;-77
2022/06/18 02:44:26;;;;;;;4.00;3.70;;;18.20;92.40;;;;;;5137324;27;20462;-78
2022/06/18 02:46:55;;;;;;;4.40;4.00;;;18.20;92.40;;;;;;5137743;27;20469;-79
2022/06/18 02:49:26;;;;;;;5.20;4.70;;;18.20;92.40;;;;;;5137366;27;20434;-80
2022/06/18 02:51:54;;;;;;;4.30;3.83;;;18.20;92.50;;;;;;5137441;27;20427;-78
2022/06/18 02:54:24;;;;;;;6.50;5.63;;;18.20;92.50;;;;;;5137554;27;20448;-78
2022/06/18 02:56:54;;;;;;;4.13;3.73;;;18.20;92.50;;;;;;5137275;27;20495;-79
2022/06/18 02:59:24;;;;;;;4.80;4.30;;;18.20;92.50;;;;;;5137387;27;20801;-78
2022/06/18 03:01:52;;;;;;;4.73;4.33;;;18.20;92.60;;;;;;5156264;27;21038;-78
2022/06/18 03:04:20;;;;;;;4.50;4.07;;;18.20;92.60;;;;;;5137529;27;20528;-77
2022/06/18 03:06:49;;;;;;;4.87;4.47;;;18.20;92.60;;;;;;5137374;27;20466;-78
2022/06/18 03:09:17;;;;;;;4.73;4.20;;;18.20;92.60;;;;;;5138000;27;20446;-79
2022/06/18 03:14:35;;;;;;;8.70;5.37;;;18.20;92.70;;;;;;5137936;27;20821;-77
2022/06/18 03:17:05;;;;;;;4.87;4.37;;;18.10;92.70;;;;;;5144130;27;20436;-79
2022/06/18 03:19:39;;;;;;;5.10;4.67;;;18.20;92.80;;;;;;5146680;27;20438;-78
2022/06/18 03:22:13;;;;;;;6.77;4.97;;;18.20;92.90;;;;;;5145260;27;20467;-78
2022/06/18 03:24:42;;;;;;;5.00;4.50;;;18.20;92.90;;;;;;5161949;27;20413;-78
2022/06/18 03:27:11;;;;;;;5.60;5.10;;;18.20;92.90;;;;;;5138580;27;20872;-79
2022/06/18 03:29:46;;;;;;;9.40;8.40;;;18.20;93.00;;;;;;5138371;27;20501;-78
2022/06/18 03:32:15;;;;;;;5.60;5.13;;;18.20;93.00;;;;;;5137739;27;20442;-78
2022/06/18 03:34:43;;;;;;;5.00;4.50;;;18.20;93.00;;;;;;5156052;27;20480;-78
2022/06/18 03:37:11;;;;;;;6.33;5.83;;;18.20;93.10;;;;;;5137583;27;20465;-78
2022/06/18 03:39:40;;;;;;;6.10;5.50;;;18.20;93.10;;;;;;5137509;27;20437;-77
2022/06/18 03:42:08;;;;;;;5.83;5.33;;;18.20;93.20;;;;;;5155851;27;20484;-79
2022/06/18 03:44:37;;;;;;;6.33;5.80;;;18.20;93.30;;;;;;5138799;27;20448;-79
2022/06/18 03:47:08;;;;;;;8.80;5.23;;;18.20;93.30;;;;;;5138201;27;21007;-79
2022/06/18 03:49:40;;;;;;;5.40;4.90;;;18.20;93.40;;;;;;5137801;27;20424;-78
2022/06/18 03:52:10;;;;;;;6.00;5.50;;;18.20;93.40;;;;;;5137939;27;20476;-79
2022/06/18 03:54:38;;;;;;;6.07;5.57;;;18.20;93.50;;;;;;5137544;27;20866;-80
2022/06/18 03:57:15;;;;;;;5.70;5.30;;;18.20;93.80;;;;;;5139443;27;20476;-78
2022/06/18 03:59:45;;;;;;;5.80;5.00;;;18.20;93.60;;;;;;5141193;27;20447;-78
2022/06/18 04:02:15;;;;;;;6.63;5.40;;;18.20;93.60;;;;;;5140982;27;20834;-77
2022/06/18 04:04:44;;;;;;;8.13;6.60;;;18.20;93.70;;;;;;5140905;27;20449;-78
2022/06/18 04:07:19;;;;;;;5.90;5.30;;;18.30;93.80;;;;;;5141184;27;20478;-77
2022/06/18 04:10:19;;;;;;;6.33;5.73;;;18.30;93.90;;;;;;5085449;27;20425;-79
2022/06/18 04:12:49;;;;;;;6.00;5.40;;;18.30;93.90;;;;;;5140407;27;20461;-79
2022/06/18 04:15:42;;;;;;;5.80;5.30;;;18.30;94.20;;;;;;5159466;27;20440;-79
2022/06/18 04:18:21;;;;;;;5.90;5.50;;;18.30;94.00;;;;;;5145285;27;20457;-79
2022/06/18 04:20:53;;;;;;;6.43;5.80;;;18.30;94.10;;;;;;5144355;27;20454;-79
2022/06/18 04:23:23;;;;;;;6.90;5.63;;;18.30;94.20;;;;;;5143718;27;20487;-79
2022/06/18 04:25:51;;;;;;;6.97;5.97;;;18.30;94.20;;;;;;5143824;27;20457;-79
2022/06/18 04:28:24;;;;;;;6.20;5.60;;;18.40;94.40;;;;;;5143824;27;20445;-79
2022/06/18 04:31:04;;;;;;;7.20;6.57;;;18.40;94.50;;;;;;5144042;27;20437;-80
2022/06/18 04:33:36;;;;;;;7.63;6.97;;;18.40;94.60;;;;;;5142308;27;20533;-78
2022/06/18 04:36:32;;;;;;;6.83;6.20;;;18.50;94.70;;;;;;5141529;27;20469;-78
2022/06/18 04:39:05;;;;;;;6.73;6.23;;;18.50;94.90;;;;;;5142533;27;20434;-78
2022/06/18 04:41:49;;;;;;;8.00;7.30;;;18.60;95.00;;;;;;5141924;27;21002;-79
2022/06/18 04:44:24;;;;;;;7.43;6.73;;;18.60;95.10;;;;;;5141098;27;20437;-77
2022/06/18 04:47:12;;;;;;;7.07;6.57;;;18.70;95.20;;;;;;5145597;27;20866;-77
2022/06/18 04:49:43;;;;;;;8.00;7.40;;;18.80;95.20;;;;;;5140932;27;20524;-76
2022/06/18 04:52:13;;;;;;;8.37;7.60;;;18.80;95.30;;;;;;5139915;27;20801;-76
2022/06/18 04:54:46;;;;;;;7.10;6.50;;;18.90;95.40;;;;;;5141415;27;20425;-79
2022/06/18 04:57:16;;;;;;;7.43;6.83;;;19.00;95.40;;;;;;5140608;27;20476;-79
2022/06/18 04:59:46;;;;;;;9.60;6.70;;;19.10;95.50;;;;;;5142363;27;20445;-79
2022/06/18 05:02:20;;;;;;;10.40;6.93;;;19.20;95.50;;;;;;5140736;27;20819;-78
2022/06/18 05:05:00;;;;;;;7.33;6.63;;;19.20;95.60;;;;;;5140807;27;20521;-78
2022/06/18 05:07:48;;;;;;;7.53;6.93;;;19.30;95.60;;;;;;5159964;27;20446;-77
2022/06/18 05:10:54;;;;;;;9.30;8.50;;;19.40;95.70;;;;;;5116825;28;20438;-76
2022/06/18 05:13:38;;;;;;;7.73;7.13;;;19.50;95.80;;;;;;5098296;28;20464;-78
2022/06/18 05:16:25;;;;;;;8.33;7.57;;;19.50;95.80;;;;;;5148180;27;20492;-79
2022/06/18 05:18:54;;;;;;;8.80;8.10;;;19.60;95.80;;;;;;5141195;27;20817;-79
2022/06/18 05:21:24;;;;;;;8.67;7.93;;;19.70;95.90;;;;;;5140408;27;20573;-78
2022/06/18 05:23:55;;;;;;;9.53;7.10;;;19.80;95.90;;;;;;5141072;27;20438;-77
2022/06/18 05:26:24;;;;;;;9.40;8.63;;;19.80;95.90;;;;;;5140010;27;20469;-77
2022/06/18 05:28:53;;;;;;;9.07;8.00;;;19.90;96.00;;;;;;5140698;27;20453;-78
2022/06/18 05:31:21;;;;;;;8.87;7.97;;;20.00;96.00;;;;;;5159334;27;20509;-77
2022/06/18 05:33:50;;;;;;;8.87;8.13;;;20.10;96.10;;;;;;5158811;27;20465;-76
2022/06/18 05:36:20;;;;;;;8.83;8.03;;;20.20;96.10;;;;;;5139742;27;20490;-78
2022/06/18 05:38:55;;;;;;;9.20;8.40;;;20.30;96.10;;;;;;5141502;27;20937;-78
2022/06/18 05:41:24;;;;;;;8.97;8.17;;;20.50;96.20;;;;;;5140132;27;20466;-77
2022/06/18 05:43:52;;;;;;;8.83;8.03;;;20.60;96.20;;;;;;5158728;27;20824;-77
2022/06/18 05:46:20;;;;;;;9.40;8.50;;;20.80;96.20;;;;;;5140709;27;20473;-79
2022/06/18 05:48:49;;;;;;;8.90;8.20;;;21.00;96.20;;;;;;5141421;27;20463;-79
2022/06/18 05:51:17;;;;;;;10.40;9.40;;;21.20;96.30;;;;;;5141767;27;20442;-79
2022/06/18 05:53:46;;;;;;;10.90;9.90;;;21.40;96.30;;;;;;5159511;27;20432;-77
2022/06/18 05:56:21;;;;;;;10.30;9.27;;;21.60;96.30;;;;;;5139897;27;20496;-80
2022/06/18 05:59:06;;;;;;;10.20;9.30;;;21.80;96.30;;;;;;5139142;27;20441;-77
2022/06/18 06:01:39;;;;;;;9.23;8.53;;;22.10;96.30;;;;;;5139057;27;20481;-78
2022/06/18 06:04:07;;;;;;;11.73;10.77;;;22.30;96.20;;;;;;5138939;27;20494;-77
2022/06/18 06:06:36;;;;;;;10.10;9.30;;;22.50;96.10;;;;;;5139317;27;20993;-79
2022/06/18 06:09:05;;;;;;;10.87;9.77;;;22.70;96.00;;;;;;5143784;27;20498;-77
2022/06/18 06:11:37;;;;;;;9.80;8.90;;;22.90;95.90;;;;;;5152355;27;20433;-78
2022/06/18 06:14:07;;;;;;;9.53;8.83;;;23.10;95.80;;;;;;5154512;27;20434;-78
2022/06/18 06:16:35;;;;;;;9.43;8.63;;;23.30;95.70;;;;;;5148512;27;20477;-78
2022/06/18 06:19:04;;;;;;;10.93;10.03;;;23.50;95.70;;;;;;5143222;27;20521;-79
2022/06/18 06:21:32;;;;;;;10.43;9.60;;;23.70;95.70;;;;;;5158660;27;20472;-77
2022/06/18 06:24:01;;;;;;;9.30;8.50;;;23.90;95.60;;;;;;5139846;27;20469;-79
2022/06/18 06:26:34;;;;;;;11.37;10.20;;;24.00;95.80;;;;;;5138716;27;20469;-77
2022/06/18 06:29:04;;;;;;;9.93;9.13;;;24.20;95.50;;;;;;5158277;27;20805;-77
2022/06/18 06:31:32;;;;;;;10.87;9.93;;;24.40;95.40;;;;;;5138919;27;20502;-78
2022/06/18 06:34:01;;;;;;;10.33;9.43;;;24.60;95.30;;;;;;5141672;27;20441;-80
2022/06/18 06:36:29;;;;;;;10.00;9.03;;;24.70;95.10;;;;;;5141876;27;20483;-79
2022/06/18 06:39:02;;;;;;;14.93;10.70;;;24.90;95.00;;;;;;5140180;27;20437;-79
2022/06/18 06:41:31;;;;;;;10.13;9.40;;;25.00;94.90;;;;;;5157302;27;20941;-79
2022/06/18 06:43:59;;;;;;;11.13;10.10;;;25.10;94.80;;;;;;5139389;27;20429;-77
2022/06/18 06:46:33;;;;;;;10.53;9.53;;;25.30;94.60;;;;;;5139652;27;20998;-77
2022/06/18 06:49:01;;;;;;;10.07;9.03;;;25.40;94.60;;;;;;5158992;27;20445;-78
2022/06/18 06:51:32;;;;;;;10.57;9.67;;;25.50;94.50;;;;;;5140448;27;20457;-79
2022/06/18 06:54:07;;;;;;;11.13;10.27;;;25.70;94.40;;;;;;5157699;27;20478;-76
2022/06/18 06:59:21;;;;;;;10.93;9.97;;;26.00;94.30;;;;;;5155549;27;20946;-76
2022/06/18 07:01:52;;;;;;;11.37;10.37;;;26.10;94.20;;;;;;5136793;27;21009;-75
2022/06/18 07:04:21;;;;;;;11.13;10.23;;;26.20;94.30;;;;;;5156868;27;20410;-79
2022/06/18 07:06:52;;;;;;;10.50;9.40;;;26.30;93.80;;;;;;5159380;27;20453;-79
2022/06/18 07:09:20;;;;;;;11.47;10.53;;;26.40;93.70;;;;;;5159498;27;20886;-78
2022/06/18 07:11:49;;;;;;;11.13;10.13;;;26.50;93.60;;;;;;5140083;27;20445;-78
2022/06/18 07:14:17;;;;;;;11.00;9.93;;;26.60;93.50;;;;;;5158226;27;20434;-77
2022/06/18 07:16:51;;;;;;;13.30;12.00;;;26.70;93.30;;;;;;5138851;27;20509;-78
2022/06/18 07:19:21;;;;;;;11.83;10.80;;;26.80;93.20;;;;;;5138814;27;20552;-79
2022/06/18 07:21:52;;;;;;;12.27;11.23;;;26.80;93.10;;;;;;5138847;27;20539;-79
2022/06/18 07:24:21;;;;;;;12.80;11.80;;;26.90;93.20;;;;;;5157077;27;20429;-79
2022/06/18 07:26:49;;;;;;;12.50;11.37;;;27.00;93.00;;;;;;5138722;27;20473;-78
2022/06/18 07:29:20;;;;;;;11.83;10.97;;;27.00;92.90;;;;;;5158016;27;20433;-79
2022/06/18 07:31:50;;;;;;;11.43;10.37;;;27.00;92.80;;;;;;5143333;27;20433;-81
2022/06/18 07:34:19;;;;;;;11.90;10.80;;;27.00;92.80;;;;;;5144902;27;20945;-80
2022/06/18 07:36:47;;;;;;;11.50;10.60;;;27.10;92.90;;;;;;5144838;27;20461;-81
2022/06/18 07:39:15;;;;;;;11.20;10.30;;;27.20;92.90;;;;;;5163317;27;20461;-80
2022/06/18 07:41:48;;;;;;;12.13;10.83;;;27.30;92.80;;;;;;5164091;27;20467;-79
2022/06/18 07:44:16;;;;;;;12.40;11.30;;;27.40;92.70;;;;;;5146467;27;20528;-81
2022/06/18 07:46:45;;;;;;;10.73;9.83;;;27.40;92.70;;;;;;5144439;27;20469;-80
2022/06/18 07:49:16;;;;;;;13.20;11.90;;;27.50;92.60;;;;;;5144507;27;20500;-82
2022/06/18 07:51:44;;;;;;;13.83;11.87;;;27.60;92.60;;;;;;5144756;27;20445;-79
2022/06/18 07:54:14;;;;;;;13.17;11.90;;;27.60;92.40;;;;;;5164334;27;20424;-78
2022/06/18 07:56:42;;;;;;;12.30;11.20;;;27.60;92.30;;;;;;5144412;27;20641;-81
2022/06/18 07:59:11;;;;;;;10.30;9.40;;;27.70;92.40;;;;;;5143342;27;20487;-80
2022/06/18 08:01:39;;;;;;;11.30;10.27;;;27.70;92.50;;;;;;5144676;27;20504;-80
2022/06/18 08:04:08;;;;;;;10.67;9.57;;;27.80;92.50;;;;;;5163542;27;20453;-79
2022/06/18 08:06:37;;;;;;;12.07;10.90;;;27.90;92.30;;;;;;5163482;27;20484;-80
2022/06/18 08:09:05;;;;;;;10.80;9.77;;;28.00;92.20;;;;;;5143788;27;20456;-78
2022/06/18 08:11:34;;;;;;;10.07;9.07;;;28.00;92.10;;;;;;5143784;27;20493;-79
2022/06/18 08:14:02;;;;;;;13.13;11.40;;;28.00;92.00;;;;;;5143774;27;20456;-80
2022/06/18 08:16:31;;;;;;;10.47;9.47;;;28.00;91.90;;;;;;5162061;27;20556;-80
2022/06/18 08:19:00;;;;;;;11.30;10.27;;;28.10;91.80;;;;;;5162622;27;20451;-79
2022/06/18 08:21:34;;;;;;;10.87;9.87;;;28.00;91.70;;;;;;5162548;27;20432;-79
2022/06/18 08:24:09;;;;;;;11.20;10.10;;;28.00;91.70;;;;;;5143615;27;20453;-79
2022/06/18 08:26:39;;;;;;;13.80;10.67;;;28.00;91.80;;;;;;5143390;27;20879;-80
2022/06/18 08:29:11;;;;;;;9.87;8.90;;;28.00;91.80;;;;;;5143754;27;20926;-78
2022/06/18 08:31:39;;;;;;;9.50;8.70;;;28.10;91.90;;;;;;5163133;27;20414;-81
2022/06/18 08:34:08;;;;;;;11.30;8.60;;;28.10;91.80;;;;;;5164618;27;20422;-80
2022/06/18 08:36:39;;;;;;;10.50;8.67;;;28.20;91.70;;;;;;5145096;27;20469;-80
2022/06/18 08:39:10;;;;;;;10.30;8.53;;;28.30;91.50;;;;;;5145352;27;20464;-79
2022/06/18 08:42:04;;;;;;;9.67;8.77;;;28.30;91.40;;;;;;5144746;27;20463;-80
2022/06/18 08:45:02;;;;;;;11.23;10.20;;;28.30;91.30;;;;;;5154738;27;20476;-80
2022/06/18 08:47:50;;;;;;;11.20;10.30;;;28.40;91.30;;;;;;5143388;27;20491;-81
2022/06/18 08:50:39;;;;;;;10.03;9.23;;;28.40;91.60;;;;;;5143538;27;20807;-80
2022/06/18 08:53:25;;;;;;;10.37;9.47;;;28.50;91.40;;;;;;5162709;27;20467;-83
2022/06/18 08:56:01;;;;;;;10.63;8.50;;;28.50;91.20;;;;;;5161741;27;20426;-79
2022/06/18 08:58:35;;;;;;;10.27;7.87;;;28.60;91.20;;;;;;5143402;27;20808;-79
2022/06/18 09:01:12;;;;;;;8.93;8.07;;;28.60;91.20;;;;;;5161841;27;20838;-80
2022/06/18 09:03:58;;;;;;;9.30;7.37;;;28.70;91.10;;;;;;5142571;27;20453;-81
2022/06/18 09:06:37;;;;;;;8.73;7.87;;;28.70;91.00;;;;;;5161524;27;20600;-78
2022/06/18 09:09:14;;;;;;;9.63;7.67;;;28.70;90.90;;;;;;5143249;27;20482;-79
2022/06/18 09:12:05;;;;;;;8.33;7.20;;;28.70;91.10;;;;;;5142713;27;20486;-79
2022/06/18 09:14:39;;;;;;;7.13;6.43;;;28.80;90.80;;;;;;5161251;27;20430;-78
2022/06/18 09:17:15;;;;;;;8.73;7.53;;;28.80;90.90;;;;;;5142176;27;20453;-79
2022/06/18 09:19:48;;;;;;;10.30;8.63;;;28.90;90.80;;;;;;5160827;27;20843;-78
2022/06/18 09:22:19;;;;;;;8.07;7.30;;;29.00;90.70;;;;;;5161807;27;20506;-79
2022/06/18 09:24:52;;;;;;;8.70;7.37;;;29.00;90.60;;;;;;5161141;27;20817;-79
2022/06/18 09:27:25;;;;;;;8.63;7.23;;;29.00;90.60;;;;;;5161269;27;20453;-79
2022/06/18 09:30:02;;;;;;;7.53;6.70;;;29.00;90.50;;;;;;5161477;27;20425;-79
2022/06/18 09:32:36;;;;;;;11.00;7.90;;;29.00;90.80;;;;;;5161786;27;20414;-80
2022/06/18 09:35:11;;;;;;;9.17;7.07;;;29.00;90.40;;;;;;5161250;27;20449;-81
2022/06/18 09:37:48;;;;;;;9.30;8.40;;;29.00;90.50;;;;;;5143025;27;20469;-80
2022/06/18 09:40:22;;;;;;;9.23;7.67;;;29.10;90.60;;;;;;5161178;27;20433;-79
2022/06/18 09:42:59;;;;;;;10.10;8.37;;;29.20;90.60;;;;;;5141459;27;20475;-80
2022/06/18 09:45:31;;;;;;;9.63;8.70;;;29.20;90.50;;;;;;5142221;27;20433;-80
2022/06/18 09:48:02;;;;;;;10.70;9.20;;;29.20;90.30;;;;;;5160511;27;20492;-80
2022/06/18 09:50:36;;;;;;;9.50;8.60;;;29.20;90.30;;;;;;5140704;27;20434;-78
2022/06/18 09:53:12;;;;;;;9.83;8.07;;;29.20;90.30;;;;;;5159318;27;20409;-80
2022/06/18 09:55:43;;;;;;;9.03;8.13;;;29.20;90.30;;;;;;5159492;27;20490;-78
2022/06/18 09:58:19;;;;;;;9.43;8.53;;;29.10;90.30;;;;;;5160559;27;20894;-79
2022/06/18 10:00:50;;;;;;;8.17;7.40;;;29.10;90.20;;;;;;5160444;27;20501;-77
2022/06/18 10:08:52;;;;;;;13.10;7.90;;;29.20;90.10;;;;;;5169188;27;20441;-80
2022/06/18 10:11:25;;;;;;;8.50;7.13;;;29.10;90.00;;;;;;5166988;27;20458;-80
2022/06/18 10:14:07;;;;;;;8.77;7.73;;;29.20;90.10;;;;;;5161798;27;20426;-80
2022/06/18 10:16:48;;;;;;;9.17;7.27;;;29.20;90.00;;;;;;5159966;27;20457;-79
2022/06/18 10:19:22;;;;;;;7.63;6.77;;;29.20;90.00;;;;;;5140968;27;20802;-80
2022/06/18 10:21:58;;;;;;;8.87;6.90;;;29.30;90.00;;;;;;5158720;27;20425;-80
2022/06/18 10:24:34;;;;;;;11.10;7.33;;;29.30;90.10;;;;;;5139103;27;20460;-81
2022/06/18 10:27:08;;;;;;;7.77;6.97;;;29.30;90.00;;;;;;5140430;27;20607;-79
2022/06/18 10:29:49;;;;;;;6.90;6.40;;;29.40;89.90;;;;;;5159322;27;20468;-79
2022/06/18 10:32:31;;;;;;;7.97;7.17;;;29.40;89.50;;;;;;5143134;27;20519;-80
2022/06/18 10:35:16;;;;;;;7.90;7.20;;;29.40;89.20;;;;;;5147012;27;20426;-80
2022/06/18 10:38:02;;;;;;;6.47;5.87;;;29.40;89.00;;;;;;5166215;27;20544;-80
2022/06/18 10:40:57;;;;;;;7.10;6.47;;;29.40;89.10;;;;;;5169554;27;20448;-78
2022/06/18 10:43:38;;;;;;;8.37;7.20;;;29.40;89.20;;;;;;5150989;27;20522;-79
2022/06/18 10:46:11;;;;;;;7.93;5.80;;;29.40;88.90;;;;;;5170159;27;20536;-80
2022/06/18 10:48:46;;;;;;;7.43;6.63;;;29.40;89.00;;;;;;5150568;27;20935;-81
2022/06/18 10:51:19;;;;;;;9.97;6.50;;;29.40;88.80;;;;;;5151474;27;20479;-80
2022/06/18 10:53:50;;;;;;;6.83;6.13;;;29.40;88.90;;;;;;5170354;27;20426;-80
2022/06/18 10:56:22;;;;;;;8.40;7.70;;;29.40;89.10;;;;;;5153757;27;20889;-80
2022/06/18 10:58:52;;;;;;;7.87;7.00;;;29.40;89.20;;;;;;5153593;27;20426;-81
2022/06/18 11:01:26;;;;;;;7.67;6.50;;;29.40;89.20;;;;;;5171408;27;20481;-80
2022/06/18 11:03:58;;;;;;;8.00;6.57;;;29.40;89.20;;;;;;5153938;27;20546;-81
2022/06/18 11:06:27;;;;;;;7.57;6.07;;;29.50;89.50;;;;;;5151298;27;20461;-80
2022/06/18 11:08:59;;;;;;;10.63;6.20;;;29.50;89.40;;;;;;5151613;27;20446;-82
2022/06/18 11:11:30;;;;;;;6.37;5.80;;;29.60;89.50;;;;;;5153358;27;20433;-80
2022/06/18 11:14:14;;;;;;;8.13;6.20;;;29.60;89.20;;;;;;5154170;27;20468;-81
2022/06/18 11:16:54;;;;;;;6.40;5.90;;;29.70;89.30;;;;;;5153683;27;20965;-82
2022/06/18 11:19:30;;;;;;;7.80;7.10;;;29.60;89.30;;;;;;5153795;27;20437;-78
2022/06/18 11:22:10;;;;;;;7.70;5.63;;;29.60;89.60;;;;;;5160740;27;20413;-79
2022/06/18 11:24:39;;;;;;;7.73;6.93;;;29.60;89.60;;;;;;5139862;27;20453;-79
2022/06/18 11:27:13;;;;;;;12.00;7.03;;;29.50;89.50;;;;;;5165753;27;20457;-80
2022/06/18 11:29:43;;;;;;;8.87;7.03;;;29.60;89.70;;;;;;5163894;27;20457;-79
2022/06/18 11:32:20;;;;;;;8.80;7.37;;;29.50;89.70;;;;;;5162843;27;20747;-79
2022/06/18 11:34:52;;;;;;;8.10;7.17;;;29.60;89.90;;;;;;5164408;27;20417;-79
2022/06/18 11:37:22;;;;;;;9.40;8.50;;;29.50;90.00;;;;;;5162992;27;20457;-78
2022/06/18 11:40:03;;;;;;;8.63;7.43;;;29.50;90.00;;;;;;5162255;27;20460;-78
2022/06/18 11:42:37;;;;;;;9.83;7.23;;;29.50;90.00;;;;;;5163346;27;20887;-79
2022/06/18 11:45:26;;;;;;;8.07;7.27;;;29.60;90.00;;;;;;5164684;27;20454;-80
2022/06/18 11:48:03;;;;;;;7.10;6.47;;;29.60;89.80;;;;;;5144017;27;20560;-83
2022/06/18 11:50:35;;;;;;;8.30;7.40;;;29.50;90.00;;;;;;5144346;27;20438;-79
2022/06/18 11:53:10;;;;;;;7.87;7.07;;;29.50;90.00;;;;;;5160948;27;20450;-78
2022/06/18 11:55:43;;;;;;;7.47;6.60;;;29.50;90.10;;;;;;5159856;27;20918;-77
2022/06/18 11:58:20;;;;;;;9.87;7.43;;;29.40;90.20;;;;;;5160757;27;20439;-80
2022/06/18 12:00:53;;;;;;;8.67;7.87;;;29.40;90.10;;;;;;5145211;27;20832;-79
2022/06/18 12:03:30;;;;;;;8.10;6.10;;;29.40;90.10;;;;;;5141942;27;20430;-78
2022/06/18 12:06:05;;;;;;;7.10;6.40;;;29.40;90.30;;;;;;5145611;27;20479;-78
2022/06/18 12:08:34;;;;;;;7.53;6.67;;;29.40;90.20;;;;;;5143783;27;20461;-78
2022/06/18 12:11:25;;;;;;;8.87;6.60;;;29.50;90.30;;;;;;5164131;27;20442;-78
2022/06/18 12:14:03;;;;;;;6.20;5.60;;;29.50;90.30;;;;;;5162919;27;20446;-78
2022/06/18 12:16:39;;;;;;;6.53;5.40;;;29.50;90.30;;;;;;5162457;27;20445;-78
2022/06/18 12:19:17;;;;;;;8.90;6.50;;;29.50;90.40;;;;;;5150570;27;20441;-78
2022/06/18 12:21:49;;;;;;;7.50;6.17;;;29.50;90.40;;;;;;5161514;27;20477;-80
2022/06/18 12:24:25;;;;;;;6.43;5.83;;;29.50;90.50;;;;;;5161546;27;20958;-78
2022/06/18 12:27:02;;;;;;;7.33;6.63;;;29.50;90.40;;;;;;5141679;27;20469;-77
2022/06/18 12:30:00;;;;;;;6.43;5.83;;;29.60;90.40;;;;;;5142581;27;20445;-79
2022/06/18 12:32:41;;;;;;;7.40;6.23;;;29.60;90.30;;;;;;5136570;27;20521;-77
2022/06/18 12:35:19;;;;;;;7.00;6.40;;;29.60;90.50;;;;;;5142488;27;20433;-79
2022/06/18 12:37:58;;;;;;;7.23;6.53;;;29.60;90.40;;;;;;5164304;27;20452;-78
2022/06/18 12:40:34;;;;;;;13.13;6.70;;;29.60;90.30;;;;;;5170685;27;20413;-80
2022/06/18 12:43:09;;;;;;;5.67;5.17;;;29.60;90.30;;;;;;5148855;27;20528;-77
2022/06/18 12:45:44;;;;;;;6.73;6.10;;;29.60;90.40;;;;;;5167277;27;21014;-79
2022/06/18 12:48:19;;;;;;;8.20;6.00;;;29.50;90.40;;;;;;5142508;27;20521;-79
2022/06/18 12:50:59;;;;;;;6.33;5.60;;;29.50;90.30;;;;;;5167197;27;20475;-78
2022/06/18 12:53:59;;;;;;;6.83;6.17;;;29.50;90.40;;;;;;5171272;27;20418;-78
2022/06/18 12:56:34;;;;;;;5.97;5.43;;;29.50;90.50;;;;;;5129504;27;20454;-78
2022/06/18 12:59:11;;;;;;;9.73;5.90;;;29.50;90.50;;;;;;5145262;27;20443;-77
2022/06/18 13:01:51;;;;;;;6.60;6.00;;;29.50;90.50;;;;;;5165642;27;20444;-79
2022/06/18 13:04:33;;;;;;;6.67;6.07;;;29.50;90.50;;;;;;5144489;27;20441;-78
2022/06/18 13:07:12;;;;;;;8.00;5.80;;;29.50;90.60;;;;;;5141444;27;20815;-78
2022/06/18 13:09:48;;;;;;;7.07;5.93;;;29.40;90.60;;;;;;5148152;27;20437;-78
2022/06/18 13:12:45;;;;;;;6.30;5.67;;;29.40;90.70;;;;;;5166118;27;20414;-80
2022/06/18 13:15:27;;;;;;;9.10;5.70;;;29.50;90.70;;;;;;5168021;27;20486;-78
2022/06/18 13:18:02;;;;;;;7.03;6.20;;;29.50;90.80;;;;;;5149859;27;20470;-79
2022/06/18 13:20:38;;;;;;;6.47;5.13;;;29.50;90.70;;;;;;5149279;27;20548;-78
2022/06/18 13:28:43;;;;;;;5.93;5.40;;;29.40;90.70;;;;;;5168722;27;20443;-80
2022/06/18 13:31:22;;;;;;;6.10;4.60;;;29.40;90.80;;;;;;5165209;27;20513;-80
2022/06/18 13:33:59;;;;;;;4.90;4.50;;;29.30;90.70;;;;;;5141833;27;20433;-78
2022/06/18 13:36:38;;;;;;;6.03;4.73;;;29.20;90.70;;;;;;5160888;27;20548;-78